Rollingwood, Texas
Current Conditions -  °F | °C
As of 10:51 PM on Saturday 20 Dec 2014 (Local Time) from KATT Reporting Station
Haze Haze  
Wind Chill: 50°   Ceiling: 2600
Heat Index: 50°   Visibility: 5mi
Dew Point: 47°   Wind: 0mph
Humidity: 89%   Direction: NA
Pressure: 30.18"   Gusts: NA
Location:  30.2958°N, 97.8101°W
Report Text: KATT 210451Z AUTO 00000KT 5SM BR FEW009 OVC026 10/08 A3018 RMK AO2 SLP221 T01000083
Loading
Personal Weather Stations






























Interactive Weather Map New forecast layout! Learn more

10-Day Weather Forecast

Advertisements
Track Severe Weather on mobile